sensor_id;sensor_type;location;lat;lon;timestamp;P1;durP1;ratioP1;P2;durP2;ratioP2
21251;SDS011;10784;50.578;17.878;2023-03-22T00:00:40;23.77;;;9.43;;
21251;SDS011;10784;50.578;17.878;2023-03-22T00:03:24;33.55;;;11.15;;
21251;SDS011;10784;50.578;17.878;2023-03-22T00:05:57;31.25;;;9.95;;
21251;SDS011;10784;50.578;17.878;2023-03-22T00:08:30;22.17;;;10.05;;
21251;SDS011;10784;50.578;17.878;2023-03-22T00:11:03;26.70;;;11.23;;
21251;SDS011;10784;50.578;17.878;2023-03-22T00:13:36;27.05;;;11.07;;
21251;SDS011;10784;50.578;17.878;2023-03-22T00:16:09;24.35;;;10.07;;
21251;SDS011;10784;50.578;17.878;2023-03-22T00:18:42;31.38;;;10.75;;
21251;SDS011;10784;50.578;17.878;2023-03-22T00:21:15;28.35;;;11.82;;
21251;SDS011;10784;50.578;17.878;2023-03-22T00:23:48;22.77;;;11.00;;
21251;SDS011;10784;50.578;17.878;2023-03-22T00:26:33;30.77;;;11.95;;
21251;SDS011;10784;50.578;17.878;2023-03-22T00:29:06;31.63;;;12.10;;
21251;SDS011;10784;50.578;17.878;2023-03-22T00:31:39;29.90;;;11.07;;
21251;SDS011;10784;50.578;17.878;2023-03-22T00:34:13;31.38;;;10.65;;
21251;SDS011;10784;50.578;17.878;2023-03-22T00:36:45;25.75;;;11.02;;
21251;SDS011;10784;50.578;17.878;2023-03-22T00:39:19;24.92;;;9.90;;
21251;SDS011;10784;50.578;17.878;2023-03-22T00:41:52;22.70;;;10.00;;
21251;SDS011;10784;50.578;17.878;2023-03-22T00:44:26;30.02;;;9.55;;
21251;SDS011;10784;50.578;17.878;2023-03-22T00:46:58;28.10;;;9.43;;
21251;SDS011;10784;50.578;17.878;2023-03-22T00:49:32;25.48;;;10.40;;
21251;SDS011;10784;50.578;17.878;2023-03-22T00:52:06;23.73;;;9.82;;
21251;SDS011;10784;50.578;17.878;2023-03-22T00:54:39;27.20;;;10.52;;
21251;SDS011;10784;50.578;17.878;2023-03-22T00:57:12;25.77;;;9.85;;
21251;SDS011;10784;50.578;17.878;2023-03-22T00:59:46;36.97;;;14.05;;
21251;SDS011;10784;50.578;17.878;2023-03-22T01:02:18;29.30;;;11.55;;
21251;SDS011;10784;50.578;17.878;2023-03-22T01:04:51;27.02;;;10.80;;
21251;SDS011;10784;50.578;17.878;2023-03-22T01:07:25;35.72;;;12.20;;
21251;SDS011;10784;50.578;17.878;2023-03-22T01:09:58;29.42;;;12.63;;
21251;SDS011;10784;50.578;17.878;2023-03-22T01:12:31;31.60;;;13.38;;
21251;SDS011;10784;50.578;17.878;2023-03-22T01:15:05;36.47;;;12.68;;
21251;SDS011;10784;50.578;17.878;2023-03-22T01:17:38;30.60;;;12.90;;
21251;SDS011;10784;50.578;17.878;2023-03-22T01:20:11;39.58;;;14.98;;
21251;SDS011;10784;50.578;17.878;2023-03-22T01:22:43;33.58;;;14.18;;
21251;SDS011;10784;50.578;17.878;2023-03-22T01:25:17;33.83;;;12.70;;
21251;SDS011;10784;50.578;17.878;2023-03-22T01:27:49;33.78;;;14.23;;
21251;SDS011;10784;50.578;17.878;2023-03-22T01:30:22;34.95;;;14.15;;
21251;SDS011;10784;50.578;17.878;2023-03-22T01:32:55;35.42;;;12.70;;
21251;SDS011;10784;50.578;17.878;2023-03-22T01:35:28;32.97;;;13.93;;
21251;SDS011;10784;50.578;17.878;2023-03-22T01:38:02;33.78;;;12.13;;
21251;SDS011;10784;50.578;17.878;2023-03-22T01:40:36;36.22;;;12.77;;
21251;SDS011;10784;50.578;17.878;2023-03-22T01:43:12;34.25;;;14.10;;
21251;SDS011;10784;50.578;17.878;2023-03-22T01:45:47;32.95;;;13.20;;
21251;SDS011;10784;50.578;17.878;2023-03-22T01:48:24;34.72;;;14.43;;
21251;SDS011;10784;50.578;17.878;2023-03-22T01:54:25;38.90;;;15.07;;
21251;SDS011;10784;50.578;17.878;2023-03-22T01:56:59;41.60;;;16.20;;
21251;SDS011;10784;50.578;17.878;2023-03-22T01:59:42;34.67;;;14.98;;
21251;SDS011;10784;50.578;17.878;2023-03-22T02:02:45;34.13;;;14.98;;
21251;SDS011;10784;50.578;17.878;2023-03-22T02:05:28;35.78;;;15.00;;
21251;SDS011;10784;50.578;17.878;2023-03-22T02:08:05;37.20;;;14.27;;
21251;SDS011;10784;50.578;17.878;2023-03-22T02:10:56;36.67;;;14.27;;
21251;SDS011;10784;50.578;17.878;2023-03-22T02:17:04;38.70;;;13.80;;
21251;SDS011;10784;50.578;17.878;2023-03-22T02:22:52;43.38;;;13.98;;
21251;SDS011;10784;50.578;17.878;2023-03-22T02:28:32;31.67;;;14.93;;
21251;SDS011;10784;50.578;17.878;2023-03-22T02:36:22;43.15;;;15.05;;
21251;SDS011;10784;50.578;17.878;2023-03-22T02:49:34;43.97;;;15.50;;
21251;SDS011;10784;50.578;17.878;2023-03-22T02:52:19;36.35;;;13.13;;
21251;SDS011;10784;50.578;17.878;2023-03-22T02:58:06;30.77;;;14.18;;
21251;SDS011;10784;50.578;17.878;2023-03-22T03:00:42;36.73;;;15.17;;
21251;SDS011;10784;50.578;17.878;2023-03-22T03:03:15;46.83;;;18.48;;
21251;SDS011;10784;50.578;17.878;2023-03-22T03:05:52;30.27;;;13.27;;
21251;SDS011;10784;50.578;17.878;2023-03-22T03:08:26;34.40;;;14.60;;
21251;SDS011;10784;50.578;17.878;2023-03-22T03:11:00;35.97;;;14.95;;
21251;SDS011;10784;50.578;17.878;2023-03-22T03:13:33;47.47;;;16.30;;
21251;SDS011;10784;50.578;17.878;2023-03-22T03:16:06;47.08;;;18.10;;
21251;SDS011;10784;50.578;17.878;2023-03-22T03:29:52;54.63;;;19.00;;
21251;SDS011;10784;50.578;17.878;2023-03-22T03:35:00;46.22;;;17.60;;
21251;SDS011;10784;50.578;17.878;2023-03-22T03:37:43;54.65;;;18.23;;
21251;SDS011;10784;50.578;17.878;2023-03-22T03:40:21;53.10;;;17.48;;
21251;SDS011;10784;50.578;17.878;2023-03-22T03:42:55;45.45;;;16.75;;
21251;SDS011;10784;50.578;17.878;2023-03-22T03:45:29;53.42;;;19.25;;
21251;SDS011;10784;50.578;17.878;2023-03-22T03:48:07;39.10;;;17.30;;
21251;SDS011;10784;50.578;17.878;2023-03-22T03:50:41;51.55;;;17.63;;
21251;SDS011;10784;50.578;17.878;2023-03-22T03:53:15;56.20;;;19.52;;
21251;SDS011;10784;50.578;17.878;2023-03-22T03:55:48;39.67;;;18.60;;
21251;SDS011;10784;50.578;17.878;2023-03-22T03:58:22;50.03;;;19.42;;
21251;SDS011;10784;50.578;17.878;2023-03-22T04:00:57;54.40;;;18.70;;
21251;SDS011;10784;50.578;17.878;2023-03-22T04:03:56;50.47;;;18.27;;
21251;SDS011;10784;50.578;17.878;2023-03-22T04:06:44;59.80;;;21.20;;
21251;SDS011;10784;50.578;17.878;2023-03-22T04:09:22;55.88;;;20.23;;
21251;SDS011;10784;50.578;17.878;2023-03-22T04:12:00;51.80;;;20.52;;
21251;SDS011;10784;50.578;17.878;2023-03-22T04:14:32;51.47;;;17.98;;
21251;SDS011;10784;50.578;17.878;2023-03-22T04:17:12;58.72;;;22.08;;
21251;SDS011;10784;50.578;17.878;2023-03-22T04:19:45;52.15;;;20.65;;
21251;SDS011;10784;50.578;17.878;2023-03-22T04:22:18;52.10;;;19.95;;
21251;SDS011;10784;50.578;17.878;2023-03-22T04:24:51;56.65;;;19.70;;
21251;SDS011;10784;50.578;17.878;2023-03-22T04:27:26;44.05;;;18.70;;
21251;SDS011;10784;50.578;17.878;2023-03-22T04:30:11;54.70;;;20.10;;
21251;SDS011;10784;50.578;17.878;2023-03-22T04:33:05;50.28;;;19.15;;
21251;SDS011;10784;50.578;17.878;2023-03-22T04:35:56;63.33;;;21.75;;
21251;SDS011;10784;50.578;17.878;2023-03-22T04:38:37;70.10;;;24.80;;
21251;SDS011;10784;50.578;17.878;2023-03-22T04:41:13;55.60;;;20.20;;
21251;SDS011;10784;50.578;17.878;2023-03-22T04:43:50;47.63;;;19.30;;
21251;SDS011;10784;50.578;17.878;2023-03-22T04:46:23;58.60;;;23.73;;
21251;SDS011;10784;50.578;17.878;2023-03-22T04:49:04;57.13;;;24.02;;
21251;SDS011;10784;50.578;17.878;2023-03-22T04:51:41;65.60;;;22.45;;
21251;SDS011;10784;50.578;17.878;2023-03-22T04:54:26;68.50;;;24.65;;
21251;SDS011;10784;50.578;17.878;2023-03-22T04:56:59;65.40;;;23.73;;
21251;SDS011;10784;50.578;17.878;2023-03-22T04:59:37;64.75;;;23.33;;
21251;SDS011;10784;50.578;17.878;2023-03-22T05:02:09;67.25;;;24.70;;
21251;SDS011;10784;50.578;17.878;2023-03-22T05:04:46;63.50;;;22.63;;
21251;SDS011;10784;50.578;17.878;2023-03-22T05:07:32;56.53;;;21.23;;
21251;SDS011;10784;50.578;17.878;2023-03-22T05:10:08;65.45;;;22.23;;
21251;SDS011;10784;50.578;17.878;2023-03-22T05:12:41;61.05;;;23.05;;
21251;SDS011;10784;50.578;17.878;2023-03-22T05:15:23;54.97;;;21.52;;
21251;SDS011;10784;50.578;17.878;2023-03-22T05:17:57;60.45;;;23.48;;
21251;SDS011;10784;50.578;17.878;2023-03-22T05:20:30;61.50;;;23.13;;
21251;SDS011;10784;50.578;17.878;2023-03-22T05:23:21;52.88;;;20.80;;
21251;SDS011;10784;50.578;17.878;2023-03-22T05:25:57;63.22;;;23.15;;
21251;SDS011;10784;50.578;17.878;2023-03-22T05:28:33;66.65;;;21.95;;
21251;SDS011;10784;50.578;17.878;2023-03-22T05:31:17;65.38;;;22.75;;
21251;SDS011;10784;50.578;17.878;2023-03-22T05:33:59;62.33;;;22.75;;
21251;SDS011;10784;50.578;17.878;2023-03-22T05:36:34;60.85;;;24.20;;
21251;SDS011;10784;50.578;17.878;2023-03-22T05:39:28;54.20;;;22.20;;
21251;SDS011;10784;50.578;17.878;2023-03-22T05:42:02;58.65;;;23.77;;
21251;SDS011;10784;50.578;17.878;2023-03-22T05:44:37;55.35;;;23.70;;
21251;SDS011;10784;50.578;17.878;2023-03-22T05:47:16;72.90;;;24.67;;
21251;SDS011;10784;50.578;17.878;2023-03-22T05:50:10;62.25;;;22.17;;
21251;SDS011;10784;50.578;17.878;2023-03-22T05:52:44;56.67;;;22.20;;
21251;SDS011;10784;50.578;17.878;2023-03-22T05:55:34;56.78;;;24.25;;
21251;SDS011;10784;50.578;17.878;2023-03-22T05:58:09;73.63;;;23.77;;
21251;SDS011;10784;50.578;17.878;2023-03-22T06:00:44;69.97;;;23.55;;
21251;SDS011;10784;50.578;17.878;2023-03-22T06:03:29;65.22;;;23.63;;
21251;SDS011;10784;50.578;17.878;2023-03-22T06:06:10;65.93;;;22.95;;
21251;SDS011;10784;50.578;17.878;2023-03-22T06:08:54;70.07;;;25.90;;
21251;SDS011;10784;50.578;17.878;2023-03-22T06:11:45;62.22;;;25.65;;
21251;SDS011;10784;50.578;17.878;2023-03-22T06:14:20;59.78;;;21.48;;
21251;SDS011;10784;50.578;17.878;2023-03-22T06:17:11;62.83;;;22.73;;
21251;SDS011;10784;50.578;17.878;2023-03-22T06:19:45;61.58;;;22.95;;
21251;SDS011;10784;50.578;17.878;2023-03-22T06:22:18;64.10;;;23.08;;
21251;SDS011;10784;50.578;17.878;2023-03-22T06:24:52;55.40;;;21.92;;
21251;SDS011;10784;50.578;17.878;2023-03-22T06:27:45;52.08;;;21.13;;
21251;SDS011;10784;50.578;17.878;2023-03-22T06:30:19;72.00;;;21.00;;
21251;SDS011;10784;50.578;17.878;2023-03-22T06:33:24;71.45;;;23.27;;
21251;SDS011;10784;50.578;17.878;2023-03-22T06:36:04;53.15;;;23.42;;
21251;SDS011;10784;50.578;17.878;2023-03-22T06:38:43;60.10;;;22.60;;
21251;SDS011;10784;50.578;17.878;2023-03-22T06:41:16;53.03;;;21.70;;
21251;SDS011;10784;50.578;17.878;2023-03-22T06:43:49;50.55;;;22.45;;
21251;SDS011;10784;50.578;17.878;2023-03-22T06:46:40;53.28;;;20.35;;
21251;SDS011;10784;50.578;17.878;2023-03-22T06:49:22;58.05;;;22.45;;
21251;SDS011;10784;50.578;17.878;2023-03-22T06:51:57;66.03;;;25.02;;
21251;SDS011;10784;50.578;17.878;2023-03-22T06:54:31;67.82;;;22.88;;
21251;SDS011;10784;50.578;17.878;2023-03-22T06:57:04;64.75;;;23.60;;
21251;SDS011;10784;50.578;17.878;2023-03-22T06:59:36;68.65;;;24.45;;
21251;SDS011;10784;50.578;17.878;2023-03-22T07:02:10;58.78;;;22.17;;
21251;SDS011;10784;50.578;17.878;2023-03-22T07:04:46;57.70;;;23.67;;
21251;SDS011;10784;50.578;17.878;2023-03-22T07:07:19;61.40;;;22.77;;
21251;SDS011;10784;50.578;17.878;2023-03-22T07:09:52;56.15;;;21.70;;
21251;SDS011;10784;50.578;17.878;2023-03-22T07:12:25;52.10;;;20.73;;
21251;SDS011;10784;50.578;17.878;2023-03-22T07:14:59;59.67;;;22.60;;
21251;SDS011;10784;50.578;17.878;2023-03-22T07:17:47;53.90;;;20.85;;
21251;SDS011;10784;50.578;17.878;2023-03-22T07:20:20;54.53;;;20.35;;
21251;SDS011;10784;50.578;17.878;2023-03-22T07:22:54;53.40;;;21.85;;
21251;SDS011;10784;50.578;17.878;2023-03-22T07:25:29;49.33;;;19.98;;
21251;SDS011;10784;50.578;17.878;2023-03-22T07:28:17;48.20;;;19.70;;
21251;SDS011;10784;50.578;17.878;2023-03-22T07:30:57;55.30;;;20.25;;
21251;SDS011;10784;50.578;17.878;2023-03-22T07:33:32;48.75;;;18.15;;
21251;SDS011;10784;50.578;17.878;2023-03-22T07:36:05;47.03;;;20.73;;
21251;SDS011;10784;50.578;17.878;2023-03-22T07:38:39;52.08;;;19.02;;
21251;SDS011;10784;50.578;17.878;2023-03-22T07:41:18;47.35;;;19.95;;
21251;SDS011;10784;50.578;17.878;2023-03-22T07:44:06;48.83;;;18.98;;
21251;SDS011;10784;50.578;17.878;2023-03-22T07:47:09;39.70;;;17.77;;
21251;SDS011;10784;50.578;17.878;2023-03-22T07:50:21;43.77;;;18.77;;
21251;SDS011;10784;50.578;17.878;2023-03-22T07:52:59;85.28;;;31.02;;
21251;SDS011;10784;50.578;17.878;2023-03-22T07:55:33;66.22;;;25.15;;
21251;SDS011;10784;50.578;17.878;2023-03-22T07:58:05;59.22;;;22.27;;
21251;SDS011;10784;50.578;17.878;2023-03-22T08:00:38;51.80;;;19.85;;
21251;SDS011;10784;50.578;17.878;2023-03-22T08:06:26;38.88;;;16.88;;
21251;SDS011;10784;50.578;17.878;2023-03-22T08:08:59;43.05;;;18.83;;
21251;SDS011;10784;50.578;17.878;2023-03-22T08:11:32;48.53;;;17.38;;
21251;SDS011;10784;50.578;17.878;2023-03-22T08:14:04;42.63;;;17.45;;
21251;SDS011;10784;50.578;17.878;2023-03-22T08:16:41;46.05;;;18.08;;
21251;SDS011;10784;50.578;17.878;2023-03-22T08:19:16;36.63;;;17.63;;
21251;SDS011;10784;50.578;17.878;2023-03-22T08:21:49;34.50;;;16.13;;
21251;SDS011;10784;50.578;17.878;2023-03-22T08:24:45;42.67;;;15.63;;
21251;SDS011;10784;50.578;17.878;2023-03-22T08:27:28;42.53;;;16.15;;
21251;SDS011;10784;50.578;17.878;2023-03-22T08:30:04;40.63;;;16.33;;
21251;SDS011;10784;50.578;17.878;2023-03-22T08:32:37;48.50;;;15.63;;
21251;SDS011;10784;50.578;17.878;2023-03-22T08:35:10;41.63;;;16.13;;
21251;SDS011;10784;50.578;17.878;2023-03-22T08:37:44;34.95;;;15.90;;
21251;SDS011;10784;50.578;17.878;2023-03-22T08:40:18;38.88;;;17.05;;
21251;SDS011;10784;50.578;17.878;2023-03-22T08:42:58;35.75;;;13.65;;
21251;SDS011;10784;50.578;17.878;2023-03-22T08:45:33;36.30;;;14.95;;
21251;SDS011;10784;50.578;17.878;2023-03-22T08:48:13;37.05;;;13.88;;
21251;SDS011;10784;50.578;17.878;2023-03-22T08:51:08;48.85;;;17.83;;
21251;SDS011;10784;50.578;17.878;2023-03-22T08:53:53;38.42;;;14.65;;
21251;SDS011;10784;50.578;17.878;2023-03-22T08:56:44;36.30;;;15.37;;
21251;SDS011;10784;50.578;17.878;2023-03-22T08:59:28;28.90;;;12.73;;
21251;SDS011;10784;50.578;17.878;2023-03-22T09:02:34;37.45;;;14.10;;
21251;SDS011;10784;50.578;17.878;2023-03-22T09:05:08;32.65;;;13.63;;
21251;SDS011;10784;50.578;17.878;2023-03-22T09:07:42;33.47;;;14.10;;
21251;SDS011;10784;50.578;17.878;2023-03-22T09:10:27;36.42;;;16.17;;
21251;SDS011;10784;50.578;17.878;2023-03-22T09:12:59;40.10;;;17.17;;
21251;SDS011;10784;50.578;17.878;2023-03-22T09:15:32;36.13;;;14.40;;
21251;SDS011;10784;50.578;17.878;2023-03-22T09:18:16;35.38;;;15.10;;
21251;SDS011;10784;50.578;17.878;2023-03-22T09:20:49;27.80;;;12.45;;
21251;SDS011;10784;50.578;17.878;2023-03-22T09:23:24;27.52;;;11.52;;
21251;SDS011;10784;50.578;17.878;2023-03-22T09:25:59;26.75;;;11.77;;
21251;SDS011;10784;50.578;17.878;2023-03-22T09:28:32;23.83;;;10.43;;
21251;SDS011;10784;50.578;17.878;2023-03-22T09:31:08;27.73;;;11.30;;
21251;SDS011;10784;50.578;17.878;2023-03-22T09:33:43;21.60;;;10.25;;
21251;SDS011;10784;50.578;17.878;2023-03-22T09:36:16;27.27;;;10.25;;
21251;SDS011;10784;50.578;17.878;2023-03-22T09:38:49;19.13;;;8.05;;
21251;SDS011;10784;50.578;17.878;2023-03-22T09:41:44;21.88;;;10.10;;
21251;SDS011;10784;50.578;17.878;2023-03-22T09:44:38;14.43;;;6.35;;
21251;SDS011;10784;50.578;17.878;2023-03-22T09:47:16;12.55;;;5.80;;
21251;SDS011;10784;50.578;17.878;2023-03-22T09:49:50;15.98;;;6.03;;
21251;SDS011;10784;50.578;17.878;2023-03-22T09:52:27;13.35;;;6.25;;
21251;SDS011;10784;50.578;17.878;2023-03-22T09:55:00;17.13;;;5.88;;
21251;SDS011;10784;50.578;17.878;2023-03-22T09:57:34;13.32;;;6.32;;
21251;SDS011;10784;50.578;17.878;2023-03-22T10:11:03;11.10;;;5.75;;
21251;SDS011;10784;50.578;17.878;2023-03-22T10:13:47;16.52;;;7.20;;
21251;SDS011;10784;50.578;17.878;2023-03-22T10:16:26;12.80;;;5.22;;
21251;SDS011;10784;50.578;17.878;2023-03-22T10:19:05;13.52;;;5.38;;
21251;SDS011;10784;50.578;17.878;2023-03-22T10:21:39;11.35;;;5.07;;
21251;SDS011;10784;50.578;17.878;2023-03-22T10:24:17;9.30;;;4.65;;
21251;SDS011;10784;50.578;17.878;2023-03-22T10:26:51;13.98;;;5.25;;
21251;SDS011;10784;50.578;17.878;2023-03-22T10:29:28;10.20;;;4.45;;
21251;SDS011;10784;50.578;17.878;2023-03-22T10:32:15;8.77;;;3.97;;
21251;SDS011;10784;50.578;17.878;2023-03-22T10:56:55;10.95;;;4.82;;
21251;SDS011;10784;50.578;17.878;2023-03-22T10:59:45;10.35;;;4.53;;
21251;SDS011;10784;50.578;17.878;2023-03-22T11:04:56;11.52;;;5.45;;
21251;SDS011;10784;50.578;17.878;2023-03-22T11:10:10;6.75;;;3.60;;
21251;SDS011;10784;50.578;17.878;2023-03-22T11:12:50;9.75;;;4.63;;
21251;SDS011;10784;50.578;17.878;2023-03-22T11:15:28;5.15;;;2.47;;
21251;SDS011;10784;50.578;17.878;2023-03-22T11:18:03;5.38;;;3.45;;
21251;SDS011;10784;50.578;17.878;2023-03-22T11:20:40;6.72;;;3.30;;
21251;SDS011;10784;50.578;17.878;2023-03-22T11:23:14;5.45;;;2.70;;
21251;SDS011;10784;50.578;17.878;2023-03-22T11:25:49;3.58;;;2.13;;
21251;SDS011;10784;50.578;17.878;2023-03-22T11:28:27;4.40;;;2.55;;
21251;SDS011;10784;50.578;17.878;2023-03-22T11:31:05;6.85;;;2.72;;
21251;SDS011;10784;50.578;17.878;2023-03-22T11:33:43;7.45;;;2.90;;
21251;SDS011;10784;50.578;17.878;2023-03-22T11:36:17;4.85;;;2.80;;
21251;SDS011;10784;50.578;17.878;2023-03-22T11:41:49;3.83;;;2.55;;
21251;SDS011;10784;50.578;17.878;2023-03-22T11:44:22;4.80;;;2.90;;
21251;SDS011;10784;50.578;17.878;2023-03-22T11:46:57;5.82;;;2.72;;
21251;SDS011;10784;50.578;17.878;2023-03-22T11:49:37;5.32;;;2.75;;
21251;SDS011;10784;50.578;17.878;2023-03-22T11:52:14;11.55;;;3.17;;
21251;SDS011;10784;50.578;17.878;2023-03-22T11:54:47;4.93;;;2.65;;
21251;SDS011;10784;50.578;17.878;2023-03-22T11:57:25;3.38;;;2.65;;
21251;SDS011;10784;50.578;17.878;2023-03-22T11:59:59;6.30;;;3.05;;
21251;SDS011;10784;50.578;17.878;2023-03-22T12:05:28;6.68;;;2.55;;
21251;SDS011;10784;50.578;17.878;2023-03-22T12:08:26;6.75;;;3.15;;
21251;SDS011;10784;50.578;17.878;2023-03-22T12:13:56;4.00;;;2.17;;
21251;SDS011;10784;50.578;17.878;2023-03-22T12:16:31;5.32;;;3.20;;
21251;SDS011;10784;50.578;17.878;2023-03-22T12:21:59;2.20;;;1.55;;
21251;SDS011;10784;50.578;17.878;2023-03-22T12:24:32;2.85;;;1.77;;
21251;SDS011;10784;50.578;17.878;2023-03-22T12:27:09;4.10;;;2.40;;
21251;SDS011;10784;50.578;17.878;2023-03-22T12:29:49;6.55;;;3.20;;
21251;SDS011;10784;50.578;17.878;2023-03-22T12:32:25;5.07;;;1.90;;
21251;SDS011;10784;50.578;17.878;2023-03-22T12:35:00;6.78;;;2.22;;
21251;SDS011;10784;50.578;17.878;2023-03-22T12:37:50;2.65;;;1.50;;
21251;SDS011;10784;50.578;17.878;2023-03-22T12:40:34;5.95;;;2.05;;
21251;SDS011;10784;50.578;17.878;2023-03-22T12:43:12;2.50;;;1.80;;
21251;SDS011;10784;50.578;17.878;2023-03-22T12:45:51;6.07;;;2.10;;
21251;SDS011;10784;50.578;17.878;2023-03-22T12:51:05;2.53;;;2.15;;
21251;SDS011;10784;50.578;17.878;2023-03-22T12:53:44;7.03;;;2.53;;
21251;SDS011;10784;50.578;17.878;2023-03-22T12:56:20;9.85;;;3.30;;
21251;SDS011;10784;50.578;17.878;2023-03-22T12:58:58;7.53;;;2.42;;
21251;SDS011;10784;50.578;17.878;2023-03-22T13:04:25;6.55;;;3.00;;
21251;SDS011;10784;50.578;17.878;2023-03-22T13:07:10;4.35;;;2.58;;
21251;SDS011;10784;50.578;17.878;2023-03-22T13:09:43;4.85;;;2.42;;
21251;SDS011;10784;50.578;17.878;2023-03-22T13:35:58;2.28;;;1.63;;
21251;SDS011;10784;50.578;17.878;2023-03-22T13:38:42;2.08;;;1.55;;
21251;SDS011;10784;50.578;17.878;2023-03-22T13:41:25;8.23;;;1.95;;
21251;SDS011;10784;50.578;17.878;2023-03-22T13:43:59;4.22;;;1.88;;
21251;SDS011;10784;50.578;17.878;2023-03-22T13:49:31;2.85;;;1.67;;
21251;SDS011;10784;50.578;17.878;2023-03-22T13:52:05;3.90;;;1.60;;
21251;SDS011;10784;50.578;17.878;2023-03-22T13:54:41;4.57;;;2.40;;
21251;SDS011;10784;50.578;17.878;2023-03-22T13:57:16;6.82;;;2.70;;
21251;SDS011;10784;50.578;17.878;2023-03-22T14:00:03;4.20;;;2.05;;
21251;SDS011;10784;50.578;17.878;2023-03-22T14:02:47;2.63;;;1.50;;
21251;SDS011;10784;50.578;17.878;2023-03-22T14:05:21;4.28;;;1.55;;
21251;SDS011;10784;50.578;17.878;2023-03-22T14:07:55;3.28;;;1.90;;
21251;SDS011;10784;50.578;17.878;2023-03-22T14:10:32;2.13;;;1.50;;
21251;SDS011;10784;50.578;17.878;2023-03-22T14:16:04;17.00;;;6.00;;
21251;SDS011;10784;50.578;17.878;2023-03-22T14:18:39;3.80;;;2.40;;
21251;SDS011;10784;50.578;17.878;2023-03-22T14:21:17;6.32;;;3.30;;
21251;SDS011;10784;50.578;17.878;2023-03-22T14:23:50;5.20;;;2.53;;
21251;SDS011;10784;50.578;17.878;2023-03-22T14:26:27;4.82;;;2.67;;
21251;SDS011;10784;50.578;17.878;2023-03-22T14:29:19;29.63;;;10.35;;
21251;SDS011;10784;50.578;17.878;2023-03-22T14:31:55;10.30;;;4.15;;
21251;SDS011;10784;50.578;17.878;2023-03-22T14:34:28;12.55;;;4.90;;
21251;SDS011;10784;50.578;17.878;2023-03-22T14:37:02;11.75;;;4.97;;
21251;SDS011;10784;50.578;17.878;2023-03-22T14:39:38;22.35;;;6.50;;
21251;SDS011;10784;50.578;17.878;2023-03-22T14:42:23;9.27;;;3.58;;
21251;SDS011;10784;50.578;17.878;2023-03-22T14:45:00;10.75;;;3.78;;
21251;SDS011;10784;50.578;17.878;2023-03-22T14:47:42;9.98;;;5.80;;
21251;SDS011;10784;50.578;17.878;2023-03-22T14:50:15;8.48;;;3.45;;
21251;SDS011;10784;50.578;17.878;2023-03-22T14:52:49;4.60;;;2.28;;
21251;SDS011;10784;50.578;17.878;2023-03-22T14:55:23;11.73;;;5.28;;
21251;SDS011;10784;50.578;17.878;2023-03-22T14:58:00;9.48;;;4.28;;
21251;SDS011;10784;50.578;17.878;2023-03-22T15:00:35;9.70;;;4.57;;
21251;SDS011;10784;50.578;17.878;2023-03-22T15:03:14;3.92;;;2.10;;
21251;SDS011;10784;50.578;17.878;2023-03-22T15:05:49;5.80;;;1.45;;
21251;SDS011;10784;50.578;17.878;2023-03-22T15:08:23;4.35;;;1.55;;
21251;SDS011;10784;50.578;17.878;2023-03-22T15:10:57;4.10;;;2.28;;
21251;SDS011;10784;50.578;17.878;2023-03-22T15:13:36;2.10;;;1.60;;
21251;SDS011;10784;50.578;17.878;2023-03-22T15:16:11;5.18;;;1.83;;
21251;SDS011;10784;50.578;17.878;2023-03-22T15:18:49;4.65;;;2.83;;
21251;SDS011;10784;50.578;17.878;2023-03-22T15:21:23;3.53;;;1.50;;
21251;SDS011;10784;50.578;17.878;2023-03-22T15:24:09;7.88;;;3.78;;
21251;SDS011;10784;50.578;17.878;2023-03-22T15:26:43;7.70;;;4.55;;
21251;SDS011;10784;50.578;17.878;2023-03-22T15:29:16;14.20;;;5.82;;
21251;SDS011;10784;50.578;17.878;2023-03-22T15:31:52;7.25;;;3.38;;
21251;SDS011;10784;50.578;17.878;2023-03-22T15:34:26;4.05;;;2.92;;
21251;SDS011;10784;50.578;17.878;2023-03-22T15:37:00;11.65;;;4.40;;
21251;SDS011;10784;50.578;17.878;2023-03-22T15:39:38;4.68;;;2.58;;
21251;SDS011;10784;50.578;17.878;2023-03-22T15:42:16;5.35;;;3.10;;
21251;SDS011;10784;50.578;17.878;2023-03-22T15:47:49;2.67;;;2.20;;
21251;SDS011;10784;50.578;17.878;2023-03-22T15:50:22;3.90;;;2.10;;
21251;SDS011;10784;50.578;17.878;2023-03-22T15:52:56;2.75;;;1.92;;
21251;SDS011;10784;50.578;17.878;2023-03-22T15:55:36;3.25;;;2.20;;
21251;SDS011;10784;50.578;17.878;2023-03-22T15:58:27;3.60;;;2.17;;
21251;SDS011;10784;50.578;17.878;2023-03-22T16:01:08;3.20;;;1.75;;
21251;SDS011;10784;50.578;17.878;2023-03-22T16:03:55;4.05;;;1.75;;
21251;SDS011;10784;50.578;17.878;2023-03-22T16:06:29;3.75;;;1.65;;
21251;SDS011;10784;50.578;17.878;2023-03-22T16:09:02;6.03;;;2.80;;
21251;SDS011;10784;50.578;17.878;2023-03-22T16:11:36;6.70;;;3.33;;
21251;SDS011;10784;50.578;17.878;2023-03-22T16:14:10;8.60;;;3.20;;
21251;SDS011;10784;50.578;17.878;2023-03-22T16:16:44;4.43;;;2.05;;
21251;SDS011;10784;50.578;17.878;2023-03-22T16:19:17;3.67;;;1.92;;
21251;SDS011;10784;50.578;17.878;2023-03-22T16:21:50;2.90;;;1.73;;
21251;SDS011;10784;50.578;17.878;2023-03-22T16:24:23;3.40;;;1.73;;
21251;SDS011;10784;50.578;17.878;2023-03-22T16:26:56;3.17;;;2.15;;
21251;SDS011;10784;50.578;17.878;2023-03-22T16:29:29;6.45;;;2.55;;
21251;SDS011;10784;50.578;17.878;2023-03-22T16:32:02;5.22;;;2.25;;
21251;SDS011;10784;50.578;17.878;2023-03-22T16:34:35;5.20;;;2.58;;
21251;SDS011;10784;50.578;17.878;2023-03-22T16:37:15;5.93;;;2.42;;
21251;SDS011;10784;50.578;17.878;2023-03-22T16:39:47;6.20;;;2.67;;
21251;SDS011;10784;50.578;17.878;2023-03-22T16:42:21;8.52;;;2.88;;
21251;SDS011;10784;50.578;17.878;2023-03-22T16:44:54;4.47;;;2.50;;
21251;SDS011;10784;50.578;17.878;2023-03-22T16:47:28;5.50;;;2.67;;
21251;SDS011;10784;50.578;17.878;2023-03-22T16:50:00;4.60;;;2.05;;
21251;SDS011;10784;50.578;17.878;2023-03-22T16:52:34;2.28;;;1.80;;
21251;SDS011;10784;50.578;17.878;2023-03-22T16:55:12;2.63;;;2.03;;
21251;SDS011;10784;50.578;17.878;2023-03-22T16:57:46;3.97;;;2.20;;
21251;SDS011;10784;50.578;17.878;2023-03-22T17:00:19;2.55;;;1.73;;
21251;SDS011;10784;50.578;17.878;2023-03-22T17:02:54;2.42;;;1.80;;
21251;SDS011;10784;50.578;17.878;2023-03-22T17:05:28;3.83;;;2.08;;
21251;SDS011;10784;50.578;17.878;2023-03-22T17:08:02;3.63;;;2.35;;
21251;SDS011;10784;50.578;17.878;2023-03-22T17:10:36;4.90;;;2.25;;
21251;SDS011;10784;50.578;17.878;2023-03-22T17:13:09;5.32;;;2.80;;
21251;SDS011;10784;50.578;17.878;2023-03-22T17:15:44;6.43;;;2.97;;
21251;SDS011;10784;50.578;17.878;2023-03-22T17:18:17;8.05;;;3.28;;
21251;SDS011;10784;50.578;17.878;2023-03-22T17:20:50;7.28;;;3.63;;
21251;SDS011;10784;50.578;17.878;2023-03-22T17:23:24;9.18;;;4.22;;
21251;SDS011;10784;50.578;17.878;2023-03-22T17:25:57;9.27;;;4.72;;
21251;SDS011;10784;50.578;17.878;2023-03-22T17:28:30;8.98;;;4.55;;
21251;SDS011;10784;50.578;17.878;2023-03-22T17:31:04;18.23;;;7.72;;
21251;SDS011;10784;50.578;17.878;2023-03-22T17:33:40;9.75;;;5.68;;